Time;durP1;ratioP1;P1;durP2;ratioP2;P2;SDS_P1;SDS_P2;PMS_P1;PMS_P2;Temp;Humidity;BMP_temperature;BMP_pressure;BME280_temperature;BME280_humidity;BME280_pressure;Samples;Min_cycle;Max_cycle;Signal;HPM_P1;HPM_P2
2022/11/24 00:00:01;;;;;;;6.10;3.28;;;;;;;4.83;100.00;95105.94;1034439;28;20495;-69
2022/11/24 00:00:31;;;;;;;8.30;3.25;;;;;;;4.88;100.00;95113.78;1038217;28;20023;-70
2022/11/24 00:01:06;;;;;;;5.20;2.53;;;;;;;4.83;100.00;95108.53;1038565;28;20127;-70
2022/11/24 00:01:36;;;;;;;5.97;3.22;;;;;;;4.87;100.00;95112.22;1034643;28;20026;-69
2022/11/24 00:02:07;;;;;;;6.22;2.80;;;;;;;4.90;100.00;95116.94;1034850;28;20272;-69
2022/11/24 00:02:37;;;;;;;9.00;3.28;;;;;;;4.89;100.00;95115.34;1033584;28;20096;-70
2022/11/24 00:03:08;;;;;;;8.48;3.00;;;;;;;4.89;100.00;95119.75;1034495;28;20041;-70
2022/11/24 00:03:38;;;;;;;4.97;2.83;;;;;;;4.91;100.00;95115.91;1038629;28;20032;-69
2022/11/24 00:04:11;;;;;;;7.30;3.17;;;;;;;4.85;100.00;95113.47;1038389;28;20668;-70
2022/11/24 00:04:42;;;;;;;6.53;3.50;;;;;;;4.89;100.00;95110.16;1042577;28;20051;-71
2022/11/24 00:05:12;;;;;;;7.47;2.97;;;;;;;4.92;100.00;95114.88;1042415;28;20263;-69
2022/11/24 00:05:43;;;;;;;4.55;2.80;;;;;;;4.92;100.00;95114.09;1040138;28;20033;-69
2022/11/24 00:06:14;;;;;;;4.43;2.80;;;;;;;4.92;100.00;95117.47;1038722;28;20029;-70
2022/11/24 00:06:44;;;;;;;5.07;3.20;;;;;;;4.93;100.00;95118.28;1042759;28;20025;-69
2022/11/24 00:07:15;;;;;;;6.38;2.60;;;;;;;4.92;100.00;95120.06;1041960;28;20268;-69
2022/11/24 00:07:45;;;;;;;4.25;2.92;;;;;;;4.93;100.00;95115.69;1042714;28;20099;-70
2022/11/24 00:08:17;;;;;;;9.63;3.10;;;;;;;4.92;100.00;95114.88;1042594;28;20040;-69
2022/11/24 00:08:47;;;;;;;7.10;2.95;;;;;;;4.94;100.00;95122.44;1042255;28;20056;-69
2022/11/24 00:09:18;;;;;;;5.88;3.08;;;;;;;4.94;100.00;95117.25;1038544;28;20323;-70
2022/11/24 00:09:48;;;;;;;5.50;3.17;;;;;;;4.93;100.00;95116.47;1034558;28;20431;-70
2022/11/24 00:10:18;;;;;;;5.55;2.85;;;;;;;4.93;100.00;95115.69;1038739;28;20033;-70
2022/11/24 00:10:49;;;;;;;5.18;2.90;;;;;;;4.93;100.00;95120.88;1038391;28;20072;-70
2022/11/24 00:11:21;;;;;;;9.13;3.30;;;;;;;4.93;100.00;95123.47;1038610;28;20581;-70
2022/11/24 00:11:51;;;;;;;6.78;3.10;;;;;;;4.91;100.00;95123.69;1038772;28;20346;-69
2022/11/24 00:12:22;;;;;;;7.53;3.25;;;;;;;4.95;100.00;95122.19;1037762;28;20267;-70
2022/11/24 00:12:52;;;;;;;5.22;2.75;;;;;;;4.94;100.00;95118.00;1038637;28;20423;-69
2022/11/24 00:13:23;;;;;;;6.95;2.70;;;;;;;4.94;100.00;95120.63;1034373;28;20065;-69
2022/11/24 00:13:53;;;;;;;9.82;3.35;;;;;;;4.90;100.00;95116.94;1038385;28;20038;-70
2022/11/24 00:14:25;;;;;;;7.15;3.35;;;;;;;4.90;100.00;95116.16;1033634;28;20029;-69
2022/11/24 00:14:55;;;;;;;4.45;3.00;;;;;;;4.89;100.00;95119.75;1034453;28;20124;-70
2022/11/24 00:15:26;;;;;;;4.82;2.97;;;;;;;4.89;100.00;95117.94;1034438;28;20273;-69
2022/11/24 00:16:04;;;;;;;8.27;3.03;;;;;;;4.89;100.00;95117.94;1034938;28;20074;-69
2022/11/24 00:16:35;;;;;;;4.90;2.75;;;;;;;4.87;100.00;95127.81;1034496;28;20109;-70
2022/11/24 00:17:05;;;;;;;5.53;3.03;;;;;;;4.85;100.00;95129.84;1035784;28;20380;-69
2022/11/24 00:17:36;;;;;;;7.13;2.92;;;;;;;4.89;100.00;95124.97;1036408;28;20717;-69
2022/11/24 00:18:06;;;;;;;4.28;2.78;;;;;;;4.91;100.00;95118.50;1034921;28;20029;-69
2022/11/24 00:18:38;;;;;;;7.70;3.22;;;;;;;4.85;100.00;95111.66;1038733;28;20030;-70
2022/11/24 00:19:08;;;;;;;4.15;2.70;;;;;;;4.89;100.00;95120.53;1035310;28;20602;-69
2022/11/24 00:19:39;;;;;;;4.93;2.67;;;;;;;4.88;100.00;95121.59;1032853;28;20261;-69
2022/11/24 00:20:09;;;;;;;7.43;2.85;;;;;;;4.85;100.00;95119.47;1034206;28;20025;-69
2022/11/24 00:20:40;;;;;;;5.80;3.30;;;;;;;4.90;100.00;95126.56;1022729;28;20082;-70
2022/11/24 00:21:10;;;;;;;4.97;2.70;;;;;;;4.88;100.00;95126.78;1026595;28;20436;-70
2022/11/24 00:21:41;;;;;;;4.40;2.65;;;;;;;4.93;100.00;95126.06;1022134;29;20031;-70
2022/11/24 00:22:11;;;;;;;5.45;2.70;;;;;;;4.97;100.00;95127.16;1026120;28;20030;-68
2022/11/24 00:22:42;;;;;;;6.10;2.33;;;;;;;5.01;100.00;95132.66;1034078;28;20486;-69
2022/11/24 00:23:12;;;;;;;7.20;2.70;;;;;;;5.00;100.00;95137.06;1034581;28;20057;-69
2022/11/24 00:23:43;;;;;;;5.60;2.35;;;;;;;4.96;100.00;95134.16;1042234;28;20032;-70
2022/11/24 00:24:13;;;;;;;7.72;3.17;;;;;;;4.96;100.00;95131.56;1030579;28;20026;-70
2022/11/24 00:24:44;;;;;;;5.65;2.50;;;;;;;4.97;100.00;95130.53;1030410;28;20058;-70
2022/11/24 00:25:14;;;;;;;4.85;2.47;;;;;;;4.99;100.00;95126.91;1030450;28;20499;-69
2022/11/24 00:25:45;;;;;;;5.85;2.33;;;;;;;5.01;100.00;95135.25;1030518;28;20030;-69
2022/11/24 00:26:25;;;;;;;5.38;2.58;;;;;;;5.01;100.00;95132.66;1042559;28;20039;-69
2022/11/24 00:26:56;;;;;;;8.00;2.53;;;;;;;5.01;100.00;95130.84;1038841;28;20033;-69
2022/11/24 00:27:26;;;;;;;8.30;2.80;;;;;;;5.01;100.00;95130.84;1039068;28;20272;-69
2022/11/24 00:27:57;;;;;;;9.75;2.75;;;;;;;4.99;100.00;95132.88;1038937;28;20021;-69
2022/11/24 00:28:27;;;;;;;5.55;2.92;;;;;;;5.02;100.00;95131.63;1039494;28;20025;-69
2022/11/24 00:29:02;;;;;;;4.13;2.58;;;;;;;4.96;100.00;95126.38;1039728;28;20041;-69
2022/11/24 00:29:32;;;;;;;11.50;3.33;;;;;;;5.02;100.00;95131.63;1035028;28;20160;-69
2022/11/24 00:30:03;;;;;;;5.78;2.60;;;;;;;5.01;100.00;95132.66;1035101;28;20339;-71
2022/11/24 00:30:33;;;;;;;4.25;2.50;;;;;;;5.00;100.00;95131.06;1035312;28;20022;-68
2022/11/24 00:31:12;;;;;;;8.88;4.18;;;;;;;4.98;100.00;95123.53;1031954;28;20026;-69
2022/11/24 00:31:42;;;;;;;7.28;2.75;;;;;;;4.95;100.00;95137.78;1035255;28;20037;-70
2022/11/24 00:32:13;;;;;;;4.85;2.22;;;;;;;4.96;100.00;95130.75;1030549;28;20261;-69
2022/11/24 00:32:43;;;;;;;9.65;2.92;;;;;;;4.93;100.00;95132.06;1036145;28;20056;-69
2022/11/24 00:33:14;;;;;;;4.72;2.70;;;;;;;4.96;100.00;95149.78;1035155;28;20538;-70
2022/11/24 00:33:48;;;;;;;9.13;2.40;;;;;;;4.97;100.00;95142.75;1035223;28;20411;-70
2022/11/24 00:34:18;;;;;;;11.82;3.00;;;;;;;5.01;100.00;95137.84;1039158;28;20164;-69
2022/11/24 00:34:48;;;;;;;6.63;2.38;;;;;;;5.03;100.00;95147.00;1039461;28;20306;-70
2022/11/24 00:35:19;;;;;;;6.03;2.33;;;;;;;5.02;100.00;95139.41;1040012;28;20071;-70
2022/11/24 00:35:54;;;;;;;7.25;2.58;;;;;;;4.97;100.00;95133.13;1043401;28;20025;-69
2022/11/24 00:36:26;;;;;;;11.25;2.85;;;;;;;4.95;100.00;95137.78;1038997;28;20105;-69
2022/11/24 00:36:57;;;;;;;7.65;2.60;;;;;;;5.01;100.00;95145.66;1031105;28;20349;-69
2022/11/24 00:37:27;;;;;;;5.22;2.60;;;;;;;5.02;100.00;95142.03;1023036;29;20271;-69
2022/11/24 00:37:58;;;;;;;4.78;2.20;;;;;;;5.03;100.00;95146.19;1023682;28;20035;-69
2022/11/24 00:38:28;;;;;;;5.00;2.15;;;;;;;5.00;100.00;95141.47;1026895;28;20133;-69
2022/11/24 00:39:01;;;;;;;8.55;2.60;;;;;;;4.97;100.00;95147.94;1034956;28;20029;-71
2022/11/24 00:39:31;;;;;;;4.93;2.60;;;;;;;4.96;100.00;95144.56;1037158;28;20037;-69
2022/11/24 00:40:02;;;;;;;9.13;2.85;;;;;;;4.95;100.00;95139.59;1035317;28;20359;-69
2022/11/24 00:40:32;;;;;;;5.53;2.50;;;;;;;4.96;100.00;95152.38;1041851;28;20032;-69
2022/11/24 00:41:03;;;;;;;6.32;2.53;;;;;;;4.95;100.00;95142.19;1035121;28;20038;-70
2022/11/24 00:41:33;;;;;;;5.82;2.42;;;;;;;4.91;100.00;95128.91;1039294;28;20506;-70
2022/11/24 00:42:03;;;;;;;5.47;2.70;;;;;;;4.96;100.00;95156.75;1035127;28;20490;-70
2022/11/24 00:42:34;;;;;;;10.65;2.97;;;;;;;4.96;100.00;95147.16;1030496;28;20068;-70
2022/11/24 00:43:04;;;;;;;6.65;2.42;;;;;;;4.99;100.00;95151.06;1039352;28;20029;-70
2022/11/24 00:43:35;;;;;;;4.82;2.40;;;;;;;5.01;100.00;95153.44;1039205;28;20039;-69
2022/11/24 00:44:05;;;;;;;3.30;2.33;;;;;;;5.05;100.00;95155.31;1043496;28;20040;-69
2022/11/24 00:44:36;;;;;;;3.15;2.60;;;;;;;5.02;100.00;95149.81;1039212;28;20026;-69
2022/11/24 00:45:07;;;;;;;5.53;2.90;;;;;;;5.02;100.00;95150.59;1039195;28;20447;-70
2022/11/24 00:45:37;;;;;;;5.55;2.70;;;;;;;5.01;100.00;95145.66;1039290;28;20033;-69
2022/11/24 00:46:07;;;;;;;11.02;2.78;;;;;;;4.99;100.00;95151.06;1039469;28;20021;-69
2022/11/24 00:46:38;;;;;;;4.80;2.70;;;;;;;4.94;100.00;95154.41;1039307;28;20498;-69
2022/11/24 00:47:08;;;;;;;4.93;2.80;;;;;;;4.99;100.00;95145.88;1035963;28;20567;-69
2022/11/24 00:47:39;;;;;;;5.60;2.67;;;;;;;4.96;100.00;95149.78;1031211;28;20377;-70
2022/11/24 00:48:09;;;;;;;7.60;2.47;;;;;;;4.94;100.00;95144.00;1031229;28;20034;-70
2022/11/24 00:48:40;;;;;;;6.57;2.53;;;;;;;4.95;100.00;95155.19;1036756;28;20072;-69
2022/11/24 00:49:10;;;;;;;5.28;2.50;;;;;;;4.88;100.00;95139.78;1043421;28;20024;-69
2022/11/24 00:49:41;;;;;;;9.02;2.80;;;;;;;4.90;100.00;95155.94;1043387;28;20009;-70
2022/11/24 00:50:11;;;;;;;5.90;2.40;;;;;;;4.77;100.00;95140.69;1039003;28;20666;-69
2022/11/24 00:50:41;;;;;;;9.30;2.70;;;;;;;4.90;100.00;95153.31;1034744;28;20411;-69
2022/11/24 00:51:13;;;;;;;6.68;2.78;;;;;;;4.87;100.00;95153.81;1031058;28;20010;-69
2022/11/24 00:51:43;;;;;;;6.97;2.85;;;;;;;4.90;100.00;95155.94;1023161;29;20051;-69
2022/11/24 00:52:14;;;;;;;8.30;2.88;;;;;;;4.90;100.00;95162.94;1022628;28;20263;-69
2022/11/24 00:52:44;;;;;;;9.07;2.63;;;;;;;4.91;100.00;95149.69;1027246;28;20331;-70
2022/11/24 00:53:15;;;;;;;6.80;1.90;;;;;;;4.92;100.00;95164.25;1027209;28;20015;-69
2022/11/24 00:53:45;;;;;;;5.97;2.40;;;;;;;4.85;100.00;95142.84;1036584;28;20017;-69
2022/11/24 00:54:15;;;;;;;6.25;2.50;;;;;;;4.91;100.00;95154.88;1039007;28;20025;-69
2022/11/24 00:54:46;;;;;;;7.57;2.70;;;;;;;4.91;100.00;95157.50;1034700;28;20017;-69
2022/11/24 00:55:16;;;;;;;6.95;2.88;;;;;;;4.90;100.00;95158.53;1039067;28;20055;-69
2022/11/24 00:55:50;;;;;;;6.70;1.90;;;;;;;4.89;100.00;95150.94;1039367;28;20549;-69
2022/11/24 00:56:21;;;;;;;7.35;2.33;;;;;;;4.90;100.00;95155.16;1035145;28;20464;-69
2022/11/24 00:56:51;;;;;;;9.40;2.35;;;;;;;4.87;100.00;95159.00;1035624;28;20261;-70
2022/11/24 00:57:22;;;;;;;6.45;2.88;;;;;;;4.88;100.00;95165.78;1038222;28;20024;-69
2022/11/24 00:57:52;;;;;;;6.20;3.28;;;;;;;4.85;100.00;95158.44;1039018;28;20017;-69
2022/11/24 00:58:23;;;;;;;5.20;2.28;;;;;;;4.87;100.00;95159.00;1043060;28;20084;-70
2022/11/24 00:58:53;;;;;;;6.20;2.67;;;;;;;4.87;100.00;95161.59;1036855;28;20017;-69
2022/11/24 00:59:24;;;;;;;10.80;3.42;;;;;;;4.87;100.00;95164.19;1026804;28;20070;-70
2022/11/24 00:59:54;;;;;;;5.78;2.67;;;;;;;4.85;100.00;95160.25;1026923;28;20489;-69
2022/11/24 01:00:25;;;;;;;12.18;3.10;;;;;;;4.84;100.00;95169.88;1027458;28;20794;-69
2022/11/24 01:01:20;;;;;;;9.10;2.38;;;;;;;4.84;100.00;95163.91;1030982;28;20096;-71
2022/11/24 01:01:50;;;;;;;7.38;2.60;;;;;;;4.84;100.00;95167.28;1034534;28;20479;-69
2022/11/24 01:02:21;;;;;;;6.55;2.78;;;;;;;4.86;100.00;95167.84;1038651;28;20319;-69
2022/11/24 01:02:51;;;;;;;4.47;2.30;;;;;;;4.91;100.00;95169.72;1042228;28;20071;-69
2022/11/24 01:03:22;;;;;;;5.75;3.22;;;;;;;4.93;100.00;95168.44;1039130;28;20499;-69
2022/11/24 01:03:54;;;;;;;7.00;2.28;;;;;;;4.93;100.00;95172.88;1034979;28;20025;-69
2022/11/24 01:04:24;;;;;;;6.43;2.28;;;;;;;4.89;100.00;95169.94;1030829;28;20146;-69
2022/11/24 01:04:54;;;;;;;10.20;2.47;;;;;;;4.88;100.00;95168.38;1031374;28;20320;-69
2022/11/24 01:05:25;;;;;;;4.20;2.45;;;;;;;4.86;100.00;95170.44;1034793;28;20034;-69
2022/11/24 01:05:55;;;;;;;7.80;2.80;;;;;;;4.85;100.00;95168.84;1034485;28;20026;-68
2022/11/24 01:06:26;;;;;;;8.40;2.70;;;;;;;4.78;100.00;95163.03;1031114;28;20452;-70
2022/11/24 01:06:56;;;;;;;8.35;2.70;;;;;;;4.82;100.00;95169.31;1031269;28;20030;-69
2022/11/24 01:07:27;;;;;;;11.02;3.13;;;;;;;4.80;100.00;95173.22;1038272;28;20029;-69
2022/11/24 01:07:57;;;;;;;8.63;2.67;;;;;;;4.77;100.00;95169.28;1038939;28;20029;-69
2022/11/24 01:08:28;;;;;;;6.28;2.60;;;;;;;4.81;100.00;95174.78;1039234;28;20736;-69
2022/11/24 01:08:58;;;;;;;8.23;3.03;;;;;;;4.75;100.00;95173.91;1039053;28;20038;-69
2022/11/24 01:09:29;;;;;;;5.00;2.45;;;;;;;4.74;100.00;95177.53;1039035;28;20533;-69
2022/11/24 01:09:59;;;;;;;5.20;2.80;;;;;;;4.73;100.00;95178.56;1039145;28;20021;-69
2022/11/24 01:10:30;;;;;;;6.68;2.67;;;;;;;4.70;100.00;95184.25;1034966;28;20029;-69
2022/11/24 01:11:59;;;;;;;10.10;2.53;;;;;;;4.70;100.00;95189.44;1038280;28;20033;-69
2022/11/24 01:12:23;;;;;;;6.43;2.30;;;;;;;4.66;100.00;95188.31;1035235;28;20056;-69
2022/11/24 01:12:54;;;;;;;8.48;2.47;;;;;;;4.66;100.00;95196.13;1038111;28;20742;-69
2022/11/24 01:13:24;;;;;;;6.45;2.85;;;;;;;4.65;100.00;95187.53;1034966;28;20400;-69
2022/11/24 01:13:57;;;;;;;12.57;2.75;;;;;;;4.63;100.00;95183.63;1034926;28;20026;-69
2022/11/24 01:14:27;;;;;;;7.93;2.30;;;;;;;4.67;100.00;95184.72;1031007;28;20030;-69
2022/11/24 01:14:58;;;;;;;7.65;2.90;;;;;;;4.72;100.00;95197.78;1023296;28;20982;-69
2022/11/24 01:15:29;;;;;;;8.15;2.97;;;;;;;4.72;100.00;95195.19;1026928;28;20089;-68
2022/11/24 01:15:59;;;;;;;6.85;2.50;;;;;;;4.74;100.00;95193.13;1027325;28;20497;-68
2022/11/24 01:16:32;;;;;;;10.77;2.85;;;;;;;4.72;100.00;95193.34;1035236;28;20268;-69
2022/11/24 01:17:03;;;;;;;8.45;2.50;;;;;;;4.73;100.00;95197.56;1031043;28;20427;-69
2022/11/24 01:17:33;;;;;;;4.60;2.55;;;;;;;4.71;100.00;95198.81;1031169;28;20273;-68
2022/11/24 01:18:04;;;;;;;5.20;2.63;;;;;;;4.61;100.00;95183.06;1035161;28;20037;-70
2022/11/24 01:18:34;;;;;;;11.85;2.42;;;;;;;4.69;100.00;95195.66;1027611;28;20034;-69
2022/11/24 01:19:04;;;;;;;9.98;2.70;;;;;;;4.68;100.00;95197.47;1030739;28;20030;-68
2022/11/24 01:19:35;;;;;;;5.38;2.58;;;;;;;4.67;100.00;95197.72;1029123;28;20041;-68
2022/11/24 01:20:06;;;;;;;7.32;2.70;;;;;;;4.67;100.00;95200.31;1026975;28;20034;-69
2022/11/24 01:20:37;;;;;;;10.80;2.67;;;;;;;4.69;100.00;95195.66;1030606;28;20029;-69
2022/11/24 01:21:07;;;;;;;7.97;2.63;;;;;;;4.68;100.00;95188.88;1033785;28;20276;-69
2022/11/24 01:21:38;;;;;;;3.75;2.00;;;;;;;4.73;100.00;95197.56;1031256;28;20113;-69
2022/11/24 01:22:08;;;;;;;4.47;2.33;;;;;;;4.69;100.00;95193.06;1031059;28;20034;-69
2022/11/24 01:22:40;;;;;;;8.85;2.47;;;;;;;4.65;100.00;95189.38;1034603;28;20495;-70
2022/11/24 01:23:10;;;;;;;4.68;1.90;;;;;;;4.69;100.00;95195.66;1034766;28;20030;-70
2022/11/24 01:23:41;;;;;;;3.20;2.33;;;;;;;4.60;100.00;95184.09;1038609;28;20264;-69
2022/11/24 01:24:11;;;;;;;5.65;2.30;;;;;;;4.70;100.00;95205.03;1034935;28;20030;-69
2022/11/24 01:24:42;;;;;;;5.35;2.50;;;;;;;4.72;100.00;95208.16;1034993;28;20033;-71
2022/11/24 01:25:12;;;;;;;5.50;2.58;;;;;;;4.70;100.00;95194.66;1035120;28;20034;-69
2022/11/24 01:25:43;;;;;;;3.88;2.28;;;;;;;4.76;100.00;95201.47;1035110;28;20026;-69
2022/11/24 01:26:15;;;;;;;5.95;2.47;;;;;;;4.68;100.00;95189.66;1034856;28;20030;-70
2022/11/24 01:26:46;;;;;;;6.38;2.10;;;;;;;4.67;100.00;95195.91;1034990;28;20029;-69
2022/11/24 01:27:16;;;;;;;6.43;2.00;;;;;;;4.72;100.00;95208.16;1035492;28;20249;-69
2022/11/24 01:27:47;;;;;;;3.63;2.00;;;;;;;4.73;100.00;95204.56;1035087;28;20022;-68
2022/11/24 01:28:17;;;;;;;8.13;2.60;;;;;;;4.72;100.00;95213.38;1039048;28;20033;-70
2022/11/24 01:28:52;;;;;;;5.60;2.20;;;;;;;4.72;100.00;95208.16;1034846;28;20025;-70
2022/11/24 01:29:22;;;;;;;8.80;2.45;;;;;;;4.70;100.00;95205.03;1036428;28;20112;-70
2022/11/24 01:29:53;;;;;;;7.13;3.70;;;;;;;4.71;100.00;95212.59;1039086;28;20931;-69
2022/11/24 01:30:23;;;;;;;5.88;2.38;;;;;;;4.71;100.00;95209.19;1039016;28;20746;-70
2022/11/24 01:30:58;;;;;;;8.73;2.80;;;;;;;4.68;100.00;95205.25;1034942;28;20076;-69
2022/11/24 01:31:28;;;;;;;6.88;1.98;;;;;;;4.67;100.00;95215.91;1035571;28;20026;-70
2022/11/24 01:31:59;;;;;;;6.95;2.45;;;;;;;4.70;100.00;95212.84;1035120;28;20268;-69
2022/11/24 01:32:32;;;;;;;5.93;2.40;;;;;;;4.69;100.00;95204.25;1030727;28;20802;-69
2022/11/24 01:33:02;;;;;;;7.72;2.15;;;;;;;4.70;100.00;95215.44;1030855;28;20578;-70
2022/11/24 01:33:33;;;;;;;6.47;1.90;;;;;;;4.68;100.00;95215.66;1030803;28;20301;-70
2022/11/24 01:34:04;;;;;;;3.25;2.05;;;;;;;4.63;100.00;95205.19;1023510;28;20031;-69
2022/11/24 01:34:34;;;;;;;2.67;1.60;;;;;;;4.67;100.00;95214.09;1023025;28;20275;-70
2022/11/24 01:35:05;;;;;;;8.85;2.15;;;;;;;4.70;100.00;95221.41;1026634;28;20031;-69
2022/11/24 01:35:35;;;;;;;7.97;2.33;;;;;;;4.73;100.00;95220.16;1019284;28;20107;-69
2022/11/24 01:36:06;;;;;;;5.10;2.38;;;;;;;4.72;100.00;95218.56;1026826;28;20026;-68
2022/11/24 01:36:36;;;;;;;9.05;2.42;;;;;;;4.72;100.00;95221.94;1038525;28;20021;-69
2022/11/24 01:37:07;;;;;;;7.05;2.08;;;;;;;4.69;100.00;95213.84;1039028;28;20551;-69
2022/11/24 01:37:38;;;;;;;4.85;2.22;;;;;;;4.71;100.00;95224.78;1039098;28;20029;-69
2022/11/24 01:38:08;;;;;;;11.07;2.55;;;;;;;4.71;100.00;95222.19;1034677;28;20030;-70
2022/11/24 01:38:39;;;;;;;9.30;2.53;;;;;;;4.65;100.00;95215.34;1033332;28;20025;-68
2022/11/24 01:39:09;;;;;;;10.93;2.08;;;;;;;4.71;100.00;95227.41;1035139;28;20068;-70
2022/11/24 01:39:40;;;;;;;4.90;2.25;;;;;;;4.69;100.00;95219.84;1038924;28;20063;-69
2022/11/24 01:40:10;;;;;;;6.35;2.67;;;;;;;4.69;100.00;95224.22;1038857;28;20566;-69
2022/11/24 01:40:41;;;;;;;6.97;2.38;;;;;;;4.66;100.00;95230.72;1039549;28;20098;-69
2022/11/24 01:41:22;;;;;;;8.35;2.30;;;;;;;4.65;100.00;95226.53;1039625;28;20523;-69
2022/11/24 01:41:52;;;;;;;5.20;2.00;;;;;;;4.66;100.00;95230.72;1039605;28;20123;-69
2022/11/24 01:42:23;;;;;;;4.60;3.42;;;;;;;4.63;100.00;95220.78;1039100;28;20268;-67
2022/11/24 01:42:53;;;;;;;4.35;2.08;;;;;;;4.71;100.00;95232.59;1030987;28;20050;-69
2022/11/24 01:43:23;;;;;;;6.43;2.42;;;;;;;4.71;100.00;95227.41;1031206;28;20560;-69
2022/11/24 01:43:54;;;;;;;10.85;2.90;;;;;;;4.73;100.00;95240.94;1031196;28;20029;-69
2022/11/24 01:44:26;;;;;;;3.42;1.80;;;;;;;4.73;100.00;95235.75;1027562;28;20106;-69
2022/11/24 01:45:24;;;;;;;4.95;2.53;;;;;;;4.73;100.00;95238.34;1035208;28;20124;-69
2022/11/24 01:45:54;;;;;;;10.68;2.60;;;;;;;4.72;100.00;95241.94;1035062;28;20265;-69
2022/11/24 01:46:40;;;;;;;11.27;2.25;;;;;;;4.66;100.00;95232.50;1038881;28;20252;-69
2022/11/24 01:47:19;;;;;;;6.13;2.15;;;;;;;4.70;100.00;95236.22;1030734;28;20007;-69
2022/11/24 01:47:49;;;;;;;7.15;2.20;;;;;;;4.65;100.00;95244.72;1031210;28;20246;-69
2022/11/24 01:48:23;;;;;;;4.25;2.22;;;;;;;4.66;100.00;95242.91;1027352;28;20262;-69
2022/11/24 01:49:16;;;;;;;4.88;1.77;;;;;;;4.68;100.00;95244.25;1027756;28;20030;-69
2022/11/24 01:49:52;;;;;;;5.38;2.10;;;;;;;4.68;100.00;95239.03;1026937;28;20696;-69
2022/11/24 01:50:22;;;;;;;8.25;2.40;;;;;;;4.64;100.00;95239.75;1024551;28;20309;-68
2022/11/24 01:50:58;;;;;;;6.15;2.65;;;;;;;4.69;100.00;95239.81;1026468;28;20265;-69
2022/11/24 01:51:29;;;;;;;6.03;1.83;;;;;;;4.71;100.00;95235.19;1024719;28;20022;-69
2022/11/24 01:52:04;;;;;;;6.80;3.08;;;;;;;4.71;100.00;95241.16;1028368;28;20262;-68
2022/11/24 01:52:44;;;;;;;5.35;2.03;;;;;;;4.66;100.00;95229.91;1022439;29;20289;-68
2022/11/24 01:53:14;;;;;;;7.25;2.17;;;;;;;4.69;100.00;95248.44;1019128;29;20271;-68
2022/11/24 01:53:49;;;;;;;4.13;2.17;;;;;;;4.67;100.00;95241.88;1022663;28;20267;-69
2022/11/24 01:54:22;;;;;;;2.38;1.63;;;;;;;4.73;100.00;95240.94;1029096;28;20022;-69
2022/11/24 01:54:55;;;;;;;3.80;1.73;;;;;;;4.71;100.00;95245.59;1024179;28;20779;-68
2022/11/24 01:55:28;;;;;;;4.97;2.10;;;;;;;4.73;100.00;95256.53;1028316;28;21212;-72
2022/11/24 01:55:59;;;;;;;3.45;1.80;;;;;;;4.69;100.00;95243.25;1031284;28;20299;-68
2022/11/24 01:56:29;;;;;;;3.83;1.83;;;;;;;4.75;100.00;95249.28;1027958;28;20266;-68
2022/11/24 01:57:04;;;;;;;6.70;1.77;;;;;;;4.76;100.00;95250.84;1031759;28;20022;-70
2022/11/24 01:57:37;;;;;;;7.93;2.50;;;;;;;4.75;100.00;95249.28;1027586;28;20030;-69
2022/11/24 01:58:13;;;;;;;5.82;1.90;;;;;;;4.75;100.00;95249.28;1032268;28;20273;-69
2022/11/24 01:58:44;;;;;;;3.78;1.90;;;;;;;4.78;100.00;95259.19;1031092;28;20332;-68
2022/11/24 01:59:14;;;;;;;8.30;1.85;;;;;;;4.77;100.00;95254.25;1033449;28;20793;-68
2022/11/24 01:59:45;;;;;;;4.25;2.28;;;;;;;4.71;100.00;95253.38;1039170;28;20018;-69
2022/11/24 02:00:17;;;;;;;3.50;2.10;;;;;;;4.77;100.00;95254.25;1035234;28;20050;-68
2022/11/24 02:00:48;;;;;;;6.82;2.05;;;;;;;4.77;100.00;95257.63;1035532;28;20050;-68
2022/11/24 02:01:18;;;;;;;4.40;2.22;;;;;;;4.78;100.00;95264.41;1031557;28;20846;-68
2022/11/24 02:01:49;;;;;;;6.43;2.15;;;;;;;4.76;100.00;95261.22;1035532;28;20357;-68
2022/11/24 02:02:19;;;;;;;5.05;1.85;;;;;;;4.77;100.00;95252.44;1028773;28;20431;-69
2022/11/24 02:02:50;;;;;;;6.63;1.85;;;;;;;4.77;100.00;95262.06;1031229;28;20023;-69
2022/11/24 02:03:23;;;;;;;8.50;1.92;;;;;;;4.72;100.00;95254.94;1031267;28;20380;-70
2022/11/24 02:03:54;;;;;;;7.90;2.08;;;;;;;4.76;100.00;95263.84;1028084;28;20086;-68
2022/11/24 02:04:26;;;;;;;3.42;1.80;;;;;;;4.76;100.00;95261.22;1027819;28;20822;-69
2022/11/24 02:04:58;;;;;;;3.65;2.33;;;;;;;4.72;100.00;95254.94;1028043;28;20524;-68
2022/11/24 02:05:28;;;;;;;6.18;2.28;;;;;;;4.77;100.00;95262.84;1030867;28;20289;-69
2022/11/24 02:06:05;;;;;;;6.97;2.30;;;;;;;4.76;100.00;95261.22;1027103;28;20274;-68
2022/11/24 02:06:35;;;;;;;7.35;2.17;;;;;;;4.75;100.00;95258.88;1028289;28;20117;-69
2022/11/24 02:07:05;;;;;;;7.25;2.10;;;;;;;4.75;100.00;95259.66;1032943;28;20265;-68
2022/11/24 02:07:36;;;;;;;3.15;1.80;;;;;;;4.77;100.00;95269.84;1036395;28;20025;-68
2022/11/24 02:08:09;;;;;;;4.60;1.73;;;;;;;4.78;100.00;95266.22;1035633;28;20701;-68
2022/11/24 02:08:39;;;;;;;5.32;2.25;;;;;;;4.79;100.00;95259.97;1028316;28;20504;-67
2022/11/24 02:09:17;;;;;;;3.13;1.70;;;;;;;4.80;100.00;95254.56;1030413;28;20278;-69
2022/11/24 02:09:53;;;;;;;3.35;2.00;;;;;;;4.80;100.00;95264.97;1027422;28;20525;-69
2022/11/24 02:10:24;;;;;;;5.90;1.70;;;;;;;4.79;100.00;95265.19;1027575;28;20700;-69
2022/11/24 02:10:54;;;;;;;4.22;1.92;;;;;;;4.72;100.00;95266.13;1027251;28;20273;-69
2022/11/24 02:11:27;;;;;;;5.88;2.78;;;;;;;4.75;100.00;95270.06;1024924;28;20090;-69
2022/11/24 02:11:58;;;;;;;5.85;2.33;;;;;;;4.74;100.00;95268.50;1027159;28;20484;-68
2022/11/24 02:12:28;;;;;;;4.22;1.80;;;;;;;4.76;100.00;95271.63;1022485;28;20883;-69
2022/11/24 02:12:59;;;;;;;5.70;1.92;;;;;;;4.77;100.00;95273.22;1027402;28;20285;-69
2022/11/24 02:13:31;;;;;;;4.63;1.85;;;;;;;4.73;100.00;95272.13;1026924;28;20018;-69
2022/11/24 02:14:02;;;;;;;5.35;2.10;;;;;;;4.73;100.00;95277.31;1023267;28;20083;-68
2022/11/24 02:14:34;;;;;;;5.80;2.05;;;;;;;4.70;100.00;95272.59;1023027;28;20274;-69
2022/11/24 02:15:05;;;;;;;4.72;1.95;;;;;;;4.66;100.00;95274.06;1026956;28;20767;-68
2022/11/24 02:15:35;;;;;;;4.63;2.05;;;;;;;4.69;100.00;95278.81;1023288;28;20271;-69
2022/11/24 02:16:06;;;;;;;3.67;2.17;;;;;;;4.67;100.00;95283.47;1027016;28;20022;-67
2022/11/24 02:16:36;;;;;;;4.55;2.30;;;;;;;4.65;100.00;95275.09;1030818;28;20496;-68
2022/11/24 02:17:07;;;;;;;5.93;1.90;;;;;;;4.30;100.00;95221.59;1030958;28;20265;-69
2022/11/24 02:17:38;;;;;;;7.78;2.03;;;;;;;4.67;100.00;95278.28;1031031;28;20517;-69
2022/11/24 02:18:08;;;;;;;6.00;2.17;;;;;;;4.66;100.00;95274.06;1038958;28;20033;-69
2022/11/24 02:18:38;;;;;;;7.55;2.42;;;;;;;4.67;100.00;95278.28;1035262;28;20030;-68
2022/11/24 02:19:48;;;;;;;4.05;2.00;;;;;;;4.66;100.00;95277.50;1023777;28;20027;-68
2022/11/24 02:20:18;;;;;;;5.05;2.00;;;;;;;4.62;100.00;95271.16;1018585;29;20027;-68
2022/11/24 02:20:49;;;;;;;3.83;1.63;;;;;;;4.67;100.00;95273.06;1016025;29;20304;-68
2022/11/24 02:21:19;;;;;;;6.57;2.35;;;;;;;4.64;100.00;95278.75;1023202;28;20498;-69
2022/11/24 02:21:50;;;;;;;5.82;2.10;;;;;;;4.63;100.00;95283.16;1027001;28;20507;-68
2022/11/24 02:22:22;;;;;;;4.63;2.25;;;;;;;4.60;100.00;95275.81;1022550;28;20484;-69
2022/11/24 02:23:04;;;;;;;3.03;1.77;;;;;;;4.59;100.00;95282.03;1026456;28;20027;-68
2022/11/24 02:23:41;;;;;;;3.33;1.88;;;;;;;4.57;100.00;95278.13;1030924;28;20760;-68
2022/11/24 02:24:24;;;;;;;6.47;2.20;;;;;;;4.57;100.00;95283.31;1031554;28;20359;-69
2022/11/24 02:25:00;;;;;;;6.30;1.90;;;;;;;4.53;100.00;95283.00;1030761;28;20392;-69
2022/11/24 02:26:25;;;;;;;4.60;2.00;;;;;;;4.53;100.00;95283.00;1026967;28;20262;-69
2022/11/24 02:26:55;;;;;;;4.70;2.00;;;;;;;4.40;100.00;95263.31;1027734;28;20339;-66
2022/11/24 02:27:26;;;;;;;3.70;1.85;;;;;;;4.55;100.00;95280.16;1023758;28;20321;-69
2022/11/24 02:27:58;;;;;;;8.05;2.53;;;;;;;4.49;100.00;95287.06;1025010;28;20022;-69
2022/11/24 02:28:29;;;;;;;6.78;2.17;;;;;;;4.48;100.00;95290.69;1021979;28;20171;-70
2022/11/24 02:29:00;;;;;;;5.28;2.47;;;;;;;4.48;100.00;95286.28;1022451;28;20283;-70
2022/11/24 02:29:30;;;;;;;3.90;1.92;;;;;;;4.47;100.00;95289.13;1026321;28;20266;-69
2022/11/24 02:30:00;;;;;;;3.22;1.88;;;;;;;4.46;100.00;95292.72;1026691;28;20034;-69
2022/11/24 02:30:31;;;;;;;7.53;2.30;;;;;;;4.44;100.00;95290.38;1030401;28;20029;-69